Macville, Minnesota
Current Conditions -  °F | °C
As of 9:55 AM on Sunday 21 Dec 2014 (Local Time) from KGPZ Reporting Station
Overcast Overcast  
Wind Chill: 17°   Ceiling: 500
Heat Index: 28°   Visibility: 4mi
Dew Point: 27°   Wind: 16mph
Humidity: 93%   Direction: 170°S
Pressure: 29.8"   Gusts: 20mph
Location:  46.9367°N, 93.6827°W
Report Text: KGPZ 211555Z AUTO 17014G17KT 4SM OVC005 M02/M03 A2980 RMK AO1
Loading
Personal Weather Stations






























Interactive Weather Map New forecast layout! Learn more

10-Day Weather Forecast

Advertisements
Track Severe Weather on mobile